sensor_id;sensor_type;location;lat;lon;timestamp;pressure;altitude;pressure_sealevel;temperature
34807;BMP280;18310;55.586;12.286;2023-08-12T00:01:58;101962.09;;;23.23
34807;BMP280;18310;55.586;12.286;2023-08-12T00:05:01;101952.88;;;23.29
34807;BMP280;18310;55.586;12.286;2023-08-12T00:08:05;101946.13;;;23.34
34807;BMP280;18310;55.586;12.286;2023-08-12T00:11:32;101941.69;;;23.36
34807;BMP280;18310;55.586;12.286;2023-08-12T00:14:35;101930.19;;;23.38
34807;BMP280;18310;55.586;12.286;2023-08-12T00:17:38;101924.63;;;23.38
34807;BMP280;18310;55.586;12.286;2023-08-12T00:20:43;101929.03;;;23.35
34807;BMP280;18310;55.586;12.286;2023-08-12T00:23:46;101939.38;;;23.35
34807;BMP280;18310;55.586;12.286;2023-08-12T00:26:53;101950.09;;;23.33
34807;BMP280;18310;55.586;12.286;2023-08-12T00:29:56;101946.94;;;23.31
34807;BMP280;18310;55.586;12.286;2023-08-12T00:32:59;101948.56;;;23.28
34807;BMP280;18310;55.586;12.286;2023-08-12T00:36:02;101950.53;;;23.28
34807;BMP280;18310;55.586;12.286;2023-08-12T00:39:05;101939.44;;;23.28
34807;BMP280;18310;55.586;12.286;2023-08-12T00:42:09;101939.81;;;23.26
34807;BMP280;18310;55.586;12.286;2023-08-12T00:45:13;101921.69;;;23.15
34807;BMP280;18310;55.586;12.286;2023-08-12T00:48:17;101935.16;;;23.20
34807;BMP280;18310;55.586;12.286;2023-08-12T00:51:20;101920.84;;;23.18
34807;BMP280;18310;55.586;12.286;2023-08-12T00:54:26;101918.09;;;23.14
34807;BMP280;18310;55.586;12.286;2023-08-12T00:57:31;101909.78;;;23.14
34807;BMP280;18310;55.586;12.286;2023-08-12T01:00:34;101921.31;;;23.13
34807;BMP280;18310;55.586;12.286;2023-08-12T01:03:37;101920.53;;;23.12
34807;BMP280;18310;55.586;12.286;2023-08-12T01:06:40;101917.78;;;23.12
34807;BMP280;18310;55.586;12.286;2023-08-12T01:09:44;101916.13;;;23.15
34807;BMP280;18310;55.586;12.286;2023-08-12T01:12:51;101919.31;;;23.17
34807;BMP280;18310;55.586;12.286;2023-08-12T01:15:58;101920.81;;;23.21
34807;BMP280;18310;55.586;12.286;2023-08-12T01:19:06;101916.06;;;23.22
34807;BMP280;18310;55.586;12.286;2023-08-12T01:22:13;101918.00;;;23.28
34807;BMP280;18310;55.586;12.286;2023-08-12T01:25:18;101910.81;;;23.31
34807;BMP280;18310;55.586;12.286;2023-08-12T01:28:21;101912.78;;;23.34
34807;BMP280;18310;55.586;12.286;2023-08-12T01:31:32;101906.34;;;23.37
34807;BMP280;18310;55.586;12.286;2023-08-12T01:34:42;101889.41;;;23.28
34807;BMP280;18310;55.586;12.286;2023-08-12T01:37:50;101903.53;;;23.40
34807;BMP280;18310;55.586;12.286;2023-08-12T01:40:55;101910.19;;;23.50
34807;BMP280;18310;55.586;12.286;2023-08-12T01:43:58;101905.78;;;23.53
34807;BMP280;18310;55.586;12.286;2023-08-12T01:47:01;101910.13;;;23.57
34807;BMP280;18310;55.586;12.286;2023-08-12T01:50:05;101905.69;;;23.60
34807;BMP280;18310;55.586;12.286;2023-08-12T01:53:08;101902.25;;;23.48
34807;BMP280;18310;55.586;12.286;2023-08-12T01:56:12;101891.84;;;23.56
34807;BMP280;18310;55.586;12.286;2023-08-12T01:59:15;101886.28;;;23.56
34807;BMP280;18310;55.586;12.286;2023-08-12T02:02:18;101886.28;;;23.56
34807;BMP280;18310;55.586;12.286;2023-08-12T02:05:21;101881.88;;;23.59
34807;BMP280;18310;55.586;12.286;2023-08-12T02:08:24;101886.22;;;23.60
34807;BMP280;18310;55.586;12.286;2023-08-12T02:11:29;101873.47;;;23.62
34807;BMP280;18310;55.586;12.286;2023-08-12T02:14:32;101862.47;;;23.55
34807;BMP280;18310;55.586;12.286;2023-08-12T02:17:35;101868.72;;;23.63
34807;BMP280;18310;55.586;12.286;2023-08-12T02:20:40;101862.31;;;23.66
34807;BMP280;18310;55.586;12.286;2023-08-12T02:23:43;101865.09;;;23.66
34807;BMP280;18310;55.586;12.286;2023-08-12T02:26:48;101864.69;;;23.67
34807;BMP280;18310;55.586;12.286;2023-08-12T02:29:51;101861.50;;;23.69
34807;BMP280;18310;55.586;12.286;2023-08-12T02:32:54;101862.28;;;23.69
34807;BMP280;18310;55.586;12.286;2023-08-12T02:35:57;101861.84;;;23.71
34807;BMP280;18310;55.586;12.286;2023-08-12T02:39:00;101861.03;;;23.74
34807;BMP280;18310;55.586;12.286;2023-08-12T02:42:05;101860.63;;;23.75
34807;BMP280;18310;55.586;12.286;2023-08-12T02:45:09;101860.63;;;23.75
34807;BMP280;18310;55.586;12.286;2023-08-12T02:48:12;101868.56;;;23.73
34807;BMP280;18310;55.586;12.286;2023-08-12T02:51:15;101853.50;;;23.71
34807;BMP280;18310;55.586;12.286;2023-08-12T02:54:18;101867.78;;;23.73
34807;BMP280;18310;55.586;12.286;2023-08-12T02:57:23;101847.91;;;23.74
34807;BMP280;18310;55.586;12.286;2023-08-12T03:00:26;101844.34;;;23.74
34807;BMP280;18310;55.586;12.286;2023-08-12T03:03:29;101834.06;;;23.71
34807;BMP280;18310;55.586;12.286;2023-08-12T03:06:32;101824.59;;;23.68
34807;BMP280;18310;55.586;12.286;2023-08-12T03:09:35;101823.00;;;23.67
34807;BMP280;18310;55.586;12.286;2023-08-12T03:12:39;101825.44;;;23.62
34807;BMP280;18310;55.586;12.286;2023-08-12T03:15:42;101810.38;;;23.59
34807;BMP280;18310;55.586;12.286;2023-08-12T03:18:46;101819.56;;;23.56
34807;BMP280;18310;55.586;12.286;2023-08-12T03:21:49;101838.19;;;23.59
34807;BMP280;18310;55.586;12.286;2023-08-12T03:24:52;101838.56;;;23.61
34807;BMP280;18310;55.586;12.286;2023-08-12T03:27:56;101842.47;;;23.67
34807;BMP280;18310;55.586;12.286;2023-08-12T03:30:59;101843.19;;;23.71
34807;BMP280;18310;55.586;12.286;2023-08-12T03:34:02;101848.69;;;23.75
34807;BMP280;18310;55.586;12.286;2023-08-12T03:37:05;101834.84;;;23.71
34807;BMP280;18310;55.586;12.286;2023-08-12T03:40:09;101848.66;;;23.78
34807;BMP280;18310;55.586;12.286;2023-08-12T03:43:17;101851.44;;;23.78
34807;BMP280;18310;55.586;12.286;2023-08-12T03:46:43;101852.59;;;23.81
34807;BMP280;18310;55.586;12.286;2023-08-12T03:49:46;101845.38;;;23.83
34807;BMP280;18310;55.586;12.286;2023-08-12T03:52:49;101850.91;;;23.87
34807;BMP280;18310;55.586;12.286;2023-08-12T03:55:52;101854.84;;;23.89
34807;BMP280;18310;55.586;12.286;2023-08-12T03:58:55;101847.19;;;23.97
34807;BMP280;18310;55.586;12.286;2023-08-12T04:01:59;101859.44;;;24.03
34807;BMP280;18310;55.586;12.286;2023-08-12T04:05:04;101855.38;;;24.08
34807;BMP280;18310;55.586;12.286;2023-08-12T04:08:07;101853.75;;;24.10
34807;BMP280;18310;55.586;12.286;2023-08-12T04:11:10;101835.81;;;24.15
34807;BMP280;18310;55.586;12.286;2023-08-12T04:14:14;101823.00;;;24.17
34807;BMP280;18310;55.586;12.286;2023-08-12T04:17:18;101830.16;;;24.18
34807;BMP280;18310;55.586;12.286;2023-08-12T04:20:21;101814.31;;;24.15
34807;BMP280;18310;55.586;12.286;2023-08-12T04:23:24;101813.47;;;24.18
34807;BMP280;18310;55.586;12.286;2023-08-12T04:26:27;101812.66;;;24.18
34807;BMP280;18310;55.586;12.286;2023-08-12T04:29:30;101814.22;;;24.19
34807;BMP280;18310;55.586;12.286;2023-08-12T04:32:35;101815.44;;;24.18
34807;BMP280;18310;55.586;12.286;2023-08-12T04:35:38;101809.88;;;24.18
34807;BMP280;18310;55.586;12.286;2023-08-12T04:38:41;101813.88;;;24.17
34807;BMP280;18310;55.586;12.286;2023-08-12T04:41:44;101803.19;;;24.15
34807;BMP280;18310;55.586;12.286;2023-08-12T04:44:47;101800.41;;;24.15
34807;BMP280;18310;55.586;12.286;2023-08-12T04:47:52;101798.84;;;24.14
34807;BMP280;18310;55.586;12.286;2023-08-12T04:50:55;101801.63;;;24.14
34807;BMP280;18310;55.586;12.286;2023-08-12T04:54:02;101791.69;;;24.13
34807;BMP280;18310;55.586;12.286;2023-08-12T04:57:05;101794.13;;;24.11
34807;BMP280;18310;55.586;12.286;2023-08-12T05:00:08;101795.72;;;24.08
34807;BMP280;18310;55.586;12.286;2023-08-12T05:03:13;101797.34;;;24.06
34807;BMP280;18310;55.586;12.286;2023-08-12T05:06:16;101791.00;;;24.05
34807;BMP280;18310;55.586;12.286;2023-08-12T05:09:19;101790.66;;;24.03
34807;BMP280;18310;55.586;12.286;2023-08-12T05:12:22;101789.94;;;23.99
34807;BMP280;18310;55.586;12.286;2023-08-12T05:15:25;101789.19;;;23.95
34807;BMP280;18310;55.586;12.286;2023-08-12T05:18:29;101794.47;;;23.90
34807;BMP280;18310;55.586;12.286;2023-08-12T05:21:32;101780.59;;;23.86
34807;BMP280;18310;55.586;12.286;2023-08-12T05:24:35;101783.44;;;23.83
34807;BMP280;18310;55.586;12.286;2023-08-12T05:27:38;101781.09;;;23.81
34807;BMP280;18310;55.586;12.286;2023-08-12T05:30:42;101783.44;;;23.83
34807;BMP280;18310;55.586;12.286;2023-08-12T05:33:46;101776.59;;;23.87
34807;BMP280;18310;55.586;12.286;2023-08-12T05:36:49;101773.81;;;23.87
34807;BMP280;18310;55.586;12.286;2023-08-12T05:39:52;101767.06;;;23.88
34807;BMP280;18310;55.586;12.286;2023-08-12T05:42:55;101772.97;;;23.90
34807;BMP280;18310;55.586;12.286;2023-08-12T05:45:58;101763.78;;;23.93
34807;BMP280;18310;55.586;12.286;2023-08-12T05:49:03;101761.31;;;23.99
34807;BMP280;18310;55.586;12.286;2023-08-12T05:52:06;101761.25;;;24.02
34807;BMP280;18310;55.586;12.286;2023-08-12T05:55:09;101756.41;;;24.06
34807;BMP280;18310;55.586;12.286;2023-08-12T05:58:12;101767.44;;;24.14
34807;BMP280;18310;55.586;12.286;2023-08-12T06:01:15;101772.88;;;24.21
34807;BMP280;18310;55.586;12.286;2023-08-12T06:04:19;101780.25;;;24.31
34807;BMP280;18310;55.586;12.286;2023-08-12T06:07:22;101776.00;;;24.46
34807;BMP280;18310;55.586;12.286;2023-08-12T06:10:26;101774.56;;;24.57
34807;BMP280;18310;55.586;12.286;2023-08-12T06:13:29;101778.78;;;24.65
34807;BMP280;18310;55.586;12.286;2023-08-12T06:16:55;101770.69;;;24.75
34807;BMP280;18310;55.586;12.286;2023-08-12T06:20:00;101772.97;;;24.80
34807;BMP280;18310;55.586;12.286;2023-08-12T06:23:03;101768.84;;;25.23
34807;BMP280;18310;55.586;12.286;2023-08-12T06:26:06;101764.00;;;25.44
34807;BMP280;18310;55.586;12.286;2023-08-12T06:29:09;101777.25;;;25.56
34807;BMP280;18310;55.586;12.286;2023-08-12T06:32:13;101772.38;;;25.60
34807;BMP280;18310;55.586;12.286;2023-08-12T06:35:16;101781.13;;;25.62
34807;BMP280;18310;55.586;12.286;2023-08-12T06:38:19;101787.03;;;25.64
34807;BMP280;18310;55.586;12.286;2023-08-12T06:41:22;101801.31;;;25.66
34807;BMP280;18310;55.586;12.286;2023-08-12T06:44:25;101799.06;;;25.77
34807;BMP280;18310;55.586;12.286;2023-08-12T06:47:30;101790.00;;;25.89
34807;BMP280;18310;55.586;12.286;2023-08-12T06:50:33;101778.34;;;26.23
34807;BMP280;18310;55.586;12.286;2023-08-12T06:53:36;101775.00;;;26.85
34807;BMP280;18310;55.586;12.286;2023-08-12T06:56:39;101766.78;;;27.45
34807;BMP280;18310;55.586;12.286;2023-08-12T06:59:42;101771.19;;;28.14
34807;BMP280;18310;55.586;12.286;2023-08-12T07:02:48;101765.28;;;28.86
34807;BMP280;18310;55.586;12.286;2023-08-12T07:05:51;101760.31;;;29.21
34807;BMP280;18310;55.586;12.286;2023-08-12T07:08:54;101745.81;;;29.22
34807;BMP280;18310;55.586;12.286;2023-08-12T07:11:57;101740.88;;;29.36
34807;BMP280;18310;55.586;12.286;2023-08-12T07:15:00;101746.69;;;29.41
34807;BMP280;18310;55.586;12.286;2023-08-12T07:18:05;101734.66;;;29.41
34807;BMP280;18310;55.586;12.286;2023-08-12T07:21:08;101719.34;;;29.23
34807;BMP280;18310;55.586;12.286;2023-08-12T07:24:11;101740.25;;;29.32
34807;BMP280;18310;55.586;12.286;2023-08-12T07:27:14;101751.94;;;29.39
34807;BMP280;18310;55.586;12.286;2023-08-12T07:30:17;101764.91;;;29.46
34807;BMP280;18310;55.586;12.286;2023-08-12T07:33:21;101755.84;;;29.42
34807;BMP280;18310;55.586;12.286;2023-08-12T07:36:24;101750.97;;;29.33
34807;BMP280;18310;55.586;12.286;2023-08-12T07:39:27;101741.78;;;29.23
34807;BMP280;18310;55.586;12.286;2023-08-12T07:42:30;101746.09;;;29.06
34807;BMP280;18310;55.586;12.286;2023-08-12T07:45:33;101734.19;;;28.93
34807;BMP280;18310;55.586;12.286;2023-08-12T07:48:38;101733.97;;;28.79
34807;BMP280;18310;55.586;12.286;2023-08-12T07:51:41;101738.03;;;28.56
34807;BMP280;18310;55.586;12.286;2023-08-12T07:54:44;101734.50;;;28.34
34807;BMP280;18310;55.586;12.286;2023-08-12T07:57:47;101722.38;;;28.15
34807;BMP280;18310;55.586;12.286;2023-08-12T08:00:52;101735.88;;;27.95
34807;BMP280;18310;55.586;12.286;2023-08-12T08:03:56;101738.53;;;27.77
34807;BMP280;18310;55.586;12.286;2023-08-12T08:07:00;101734.19;;;27.63
34807;BMP280;18310;55.586;12.286;2023-08-12T08:10:03;101733.88;;;27.49
34807;BMP280;18310;55.586;12.286;2023-08-12T08:13:07;101725.97;;;27.35
34807;BMP280;18310;55.586;12.286;2023-08-12T08:16:12;101699.78;;;27.16
34807;BMP280;18310;55.586;12.286;2023-08-12T08:19:17;101715.78;;;26.90
34807;BMP280;18310;55.586;12.286;2023-08-12T08:22:20;101711.44;;;26.77
34807;BMP280;18310;55.586;12.286;2023-08-12T08:25:46;101715.31;;;26.67
34807;BMP280;18310;55.586;12.286;2023-08-12T08:28:49;101720.09;;;26.53
34807;BMP280;18310;55.586;12.286;2023-08-12T08:31:52;101718.69;;;26.45
34807;BMP280;18310;55.586;12.286;2023-08-12T08:34:55;101709.38;;;26.36
34807;BMP280;18310;55.586;12.286;2023-08-12T08:37:58;101713.75;;;26.37
34807;BMP280;18310;55.586;12.286;2023-08-12T08:41:05;101704.13;;;26.25
34807;BMP280;18310;55.586;12.286;2023-08-12T08:44:09;101706.41;;;26.14
34807;BMP280;18310;55.586;12.286;2023-08-12T08:47:14;101703.03;;;26.07
34807;BMP280;18310;55.586;12.286;2023-08-12T08:50:20;101712.28;;;26.04
34807;BMP280;18310;55.586;12.286;2023-08-12T08:53:23;101709.56;;;26.00
34807;BMP280;18310;55.586;12.286;2023-08-12T08:56:28;101700.41;;;26.00
34807;BMP280;18310;55.586;12.286;2023-08-12T08:59:31;101696.00;;;26.02
34807;BMP280;18310;55.586;12.286;2023-08-12T09:02:35;101711.78;;;26.09
34807;BMP280;18310;55.586;12.286;2023-08-12T09:05:38;101703.03;;;26.07
34807;BMP280;18310;55.586;12.286;2023-08-12T09:08:45;101697.75;;;26.25
34807;BMP280;18310;55.586;12.286;2023-08-12T09:11:52;101697.22;;;26.30
34807;BMP280;18310;55.586;12.286;2023-08-12T09:14:55;101706.88;;;26.41
34807;BMP280;18310;55.586;12.286;2023-08-12T09:17:58;101703.50;;;26.46
34807;BMP280;18310;55.586;12.286;2023-08-12T09:21:02;101694.03;;;26.44
34807;BMP280;18310;55.586;12.286;2023-08-12T09:24:07;101692.13;;;26.41
34807;BMP280;18310;55.586;12.286;2023-08-12T09:27:11;101693.00;;;26.38
34807;BMP280;18310;55.586;12.286;2023-08-12T09:30:14;101693.44;;;26.36
34807;BMP280;18310;55.586;12.286;2023-08-12T09:33:23;101690.13;;;26.41
34807;BMP280;18310;55.586;12.286;2023-08-12T09:36:30;101689.13;;;26.48
34807;BMP280;18310;55.586;12.286;2023-08-12T09:39:33;101688.91;;;26.55
34807;BMP280;18310;55.586;12.286;2023-08-12T09:42:44;101691.41;;;26.66
34807;BMP280;18310;55.586;12.286;2023-08-12T09:45:47;101686.13;;;26.68
34807;BMP280;18310;55.586;12.286;2023-08-12T09:48:51;101690.81;;;26.71
34807;BMP280;18310;55.586;12.286;2023-08-12T09:51:54;101695.31;;;26.68
34807;BMP280;18310;55.586;12.286;2023-08-12T09:54:58;101695.41;;;26.77
34807;BMP280;18310;55.586;12.286;2023-08-12T09:58:06;101694.31;;;26.87
34807;BMP280;18310;55.586;12.286;2023-08-12T10:01:12;101695.31;;;26.93
34807;BMP280;18310;55.586;12.286;2023-08-12T10:04:17;101683.50;;;26.89
34807;BMP280;18310;55.586;12.286;2023-08-12T10:07:21;101676.53;;;26.94
34807;BMP280;18310;55.586;12.286;2023-08-12T10:10:24;101675.22;;;26.86
34807;BMP280;18310;55.586;12.286;2023-08-12T10:13:29;101663.66;;;26.96
34807;BMP280;18310;55.586;12.286;2023-08-12T10:16:32;101661.75;;;26.93
34807;BMP280;18310;55.586;12.286;2023-08-12T10:19:36;101669.81;;;26.91
34807;BMP280;18310;55.586;12.286;2023-08-12T10:22:42;101673.41;;;26.92
34807;BMP280;18310;55.586;12.286;2023-08-12T10:25:47;101675.63;;;26.97
34807;BMP280;18310;55.586;12.286;2023-08-12T10:28:53;101665.03;;;27.04
34807;BMP280;18310;55.586;12.286;2023-08-12T10:31:56;101668.50;;;27.08
34807;BMP280;18310;55.586;12.286;2023-08-12T10:35:00;101675.63;;;27.09
34807;BMP280;18310;55.586;12.286;2023-08-12T10:38:05;101672.53;;;27.07
34807;BMP280;18310;55.586;12.286;2023-08-12T10:41:19;101681.47;;;27.02
34807;BMP280;18310;55.586;12.286;2023-08-12T10:44:26;101688.31;;;27.01
34807;BMP280;18310;55.586;12.286;2023-08-12T10:47:29;101672.53;;;26.95
34807;BMP280;18310;55.586;12.286;2023-08-12T10:50:33;101681.13;;;26.88
34807;BMP280;18310;55.586;12.286;2023-08-12T10:53:38;101672.94;;;26.81
34807;BMP280;18310;55.586;12.286;2023-08-12T10:57:09;101653.75;;;26.70
34807;BMP280;18310;55.586;12.286;2023-08-12T11:00:18;101643.91;;;26.78
34807;BMP280;18310;55.586;12.286;2023-08-12T11:03:23;101650.50;;;26.84
34807;BMP280;18310;55.586;12.286;2023-08-12T11:06:27;101645.47;;;26.92
34807;BMP280;18310;55.586;12.286;2023-08-12T11:09:30;101628.50;;;26.99
34807;BMP280;18310;55.586;12.286;2023-08-12T11:12:35;101620.88;;;26.99
34807;BMP280;18310;55.586;12.286;2023-08-12T11:15:41;101619.50;;;27.04
34807;BMP280;18310;55.586;12.286;2023-08-12T11:18:44;101616.94;;;27.09
34807;BMP280;18310;55.586;12.286;2023-08-12T11:21:47;101618.28;;;27.17
34807;BMP280;18310;55.586;12.286;2023-08-12T11:24:52;101617.09;;;27.28
34807;BMP280;18310;55.586;12.286;2023-08-12T11:27:57;101622.16;;;27.33
34807;BMP280;18310;55.586;12.286;2023-08-12T11:31:00;101614.66;;;27.30
34807;BMP280;18310;55.586;12.286;2023-08-12T11:34:04;101622.88;;;27.24
34807;BMP280;18310;55.586;12.286;2023-08-12T11:37:07;101631.47;;;27.17
34807;BMP280;18310;55.586;12.286;2023-08-12T11:40:11;101637.50;;;27.03
34807;BMP280;18310;55.586;12.286;2023-08-12T11:43:21;101630.28;;;26.93
34807;BMP280;18310;55.586;12.286;2023-08-12T11:46:24;101633.94;;;26.77
34807;BMP280;18310;55.586;12.286;2023-08-12T11:49:27;101630.03;;;26.62
34807;BMP280;18310;55.586;12.286;2023-08-12T11:52:31;101621.31;;;26.47
34807;BMP280;18310;55.586;12.286;2023-08-12T11:55:34;101615.59;;;26.38
34807;BMP280;18310;55.586;12.286;2023-08-12T11:58:38;101608.66;;;26.30
34807;BMP280;18310;55.586;12.286;2023-08-12T12:01:54;101614.00;;;26.25
34807;BMP280;18310;55.586;12.286;2023-08-12T12:04:57;101605.47;;;26.16
34807;BMP280;18310;55.586;12.286;2023-08-12T12:08:00;101603.69;;;26.09
34807;BMP280;18310;55.586;12.286;2023-08-12T12:11:04;101591.69;;;25.96
34807;BMP280;18310;55.586;12.286;2023-08-12T12:14:10;101605.81;;;26.05
34807;BMP280;18310;55.586;12.286;2023-08-12T12:17:14;101603.53;;;26.00
34807;BMP280;18310;55.586;12.286;2023-08-12T12:20:17;101591.25;;;25.85
34807;BMP280;18310;55.586;12.286;2023-08-12T12:23:20;101593.03;;;25.91
34807;BMP280;18310;55.586;12.286;2023-08-12T12:26:23;101592.59;;;25.93
34807;BMP280;18310;55.586;12.286;2023-08-12T12:29:28;101590.50;;;25.97
34807;BMP280;18310;55.586;12.286;2023-08-12T12:32:31;101588.78;;;26.00
34807;BMP280;18310;55.586;12.286;2023-08-12T12:35:34;101584.00;;;26.00
34807;BMP280;18310;55.586;12.286;2023-08-12T12:38:56;101575.22;;;26.02
34807;BMP280;18310;55.586;12.286;2023-08-12T12:41:59;101559.25;;;26.02
34807;BMP280;18310;55.586;12.286;2023-08-12T12:45:05;101560.38;;;26.05
34807;BMP280;18310;55.586;12.286;2023-08-12T12:48:08;101565.28;;;26.13
34807;BMP280;18310;55.586;12.286;2023-08-12T12:51:15;101565.09;;;26.20
34807;BMP280;18310;55.586;12.286;2023-08-12T12:54:18;101567.97;;;26.17
34807;BMP280;18310;55.586;12.286;2023-08-12T12:57:21;101561.63;;;26.16
34807;BMP280;18310;55.586;12.286;2023-08-12T13:00:25;101551.47;;;26.10
34807;BMP280;18310;55.586;12.286;2023-08-12T13:03:29;101553.44;;;26.09
34807;BMP280;18310;55.586;12.286;2023-08-12T13:06:33;101547.13;;;26.09
34807;BMP280;18310;55.586;12.286;2023-08-12T13:09:36;101553.91;;;26.08
34807;BMP280;18310;55.586;12.286;2023-08-12T13:12:41;101552.56;;;26.12
34807;BMP280;18310;55.586;12.286;2023-08-12T13:15:45;101530.81;;;26.07
34807;BMP280;18310;55.586;12.286;2023-08-12T13:18:48;101543.09;;;26.22
34807;BMP280;18310;55.586;12.286;2023-08-12T13:21:51;101535.69;;;26.16
34807;BMP280;18310;55.586;12.286;2023-08-12T13:24:54;101534.72;;;26.10
34807;BMP280;18310;55.586;12.286;2023-08-12T13:27:58;101517.81;;;26.01
34807;BMP280;18310;55.586;12.286;2023-08-12T13:31:03;101518.31;;;25.99
34807;BMP280;18310;55.586;12.286;2023-08-12T13:34:06;101502.53;;;25.92
34807;BMP280;18310;55.586;12.286;2023-08-12T13:37:09;101509.47;;;25.88
34807;BMP280;18310;55.586;12.286;2023-08-12T13:40:12;101496.47;;;25.81
34807;BMP280;18310;55.586;12.286;2023-08-12T13:43:17;101498.38;;;25.84
34807;BMP280;18310;55.586;12.286;2023-08-12T13:46:21;101499.50;;;25.87
34807;BMP280;18310;55.586;12.286;2023-08-12T13:49:24;101501.09;;;25.88
34807;BMP280;18310;55.586;12.286;2023-08-12T13:52:27;101493.94;;;25.87
34807;BMP280;18310;55.586;12.286;2023-08-12T13:55:30;101486.34;;;25.87
34807;BMP280;18310;55.586;12.286;2023-08-12T13:58:33;101489.94;;;25.88
34807;BMP280;18310;55.586;12.286;2023-08-12T14:01:37;101482.88;;;25.83
34807;BMP280;18310;55.586;12.286;2023-08-12T14:04:44;101482.63;;;25.78
34807;BMP280;18310;55.586;12.286;2023-08-12T14:07:47;101473.59;;;25.74
34807;BMP280;18310;55.586;12.286;2023-08-12T14:10:50;101468.91;;;25.71
34807;BMP280;18310;55.586;12.286;2023-08-12T14:13:53;101481.06;;;25.64
34807;BMP280;18310;55.586;12.286;2023-08-12T14:16:58;101472.53;;;25.55
34807;BMP280;18310;55.586;12.286;2023-08-12T14:20:01;101470.75;;;25.49
34807;BMP280;18310;55.586;12.286;2023-08-12T14:25:26;101458.31;;;25.37
34807;BMP280;18310;55.586;12.286;2023-08-12T14:28:29;101459.50;;;25.36
34807;BMP280;18310;55.586;12.286;2023-08-12T14:31:32;101458.06;;;25.32
34807;BMP280;18310;55.586;12.286;2023-08-12T14:34:36;101454.94;;;25.29
34807;BMP280;18310;55.586;12.286;2023-08-12T14:37:39;101451.16;;;25.36
34807;BMP280;18310;55.586;12.286;2023-08-12T14:40:47;101449.06;;;25.40
34807;BMP280;18310;55.586;12.286;2023-08-12T14:43:50;101448.72;;;25.38
34807;BMP280;18310;55.586;12.286;2023-08-12T14:46:53;101440.78;;;25.37
34807;BMP280;18310;55.586;12.286;2023-08-12T14:49:56;101442.69;;;25.40
34807;BMP280;18310;55.586;12.286;2023-08-12T14:52:59;101432.00;;;25.38
34807;BMP280;18310;55.586;12.286;2023-08-12T14:56:04;101448.06;;;25.47
34807;BMP280;18310;55.586;12.286;2023-08-12T14:59:07;101436.78;;;25.38
34807;BMP280;18310;55.586;12.286;2023-08-12T15:02:10;101465.38;;;25.42
34807;BMP280;18310;55.586;12.286;2023-08-12T15:05:13;101471.13;;;25.35
34807;BMP280;18310;55.586;12.286;2023-08-12T15:08:16;101464.41;;;25.32
34807;BMP280;18310;55.586;12.286;2023-08-12T15:11:21;101454.16;;;25.29
34807;BMP280;18310;55.586;12.286;2023-08-12T15:14:24;101453.56;;;25.21
34807;BMP280;18310;55.586;12.286;2023-08-12T15:17:27;101439.81;;;25.14
34807;BMP280;18310;55.586;12.286;2023-08-12T15:20:30;101441.56;;;25.08
34807;BMP280;18310;55.586;12.286;2023-08-12T15:23:33;101437.66;;;25.06
34807;BMP280;18310;55.586;12.286;2023-08-12T15:26:38;101433.31;;;25.05
34807;BMP280;18310;55.586;12.286;2023-08-12T15:29:41;101424.19;;;25.04
34807;BMP280;18310;55.586;12.286;2023-08-12T15:32:44;101424.59;;;25.03
34807;BMP280;18310;55.586;12.286;2023-08-12T15:35:48;101427.06;;;25.01
34807;BMP280;18310;55.586;12.286;2023-08-12T15:38:51;101416.69;;;25.01
34807;BMP280;18310;55.586;12.286;2023-08-12T15:41:55;101412.75;;;24.99
34807;BMP280;18310;55.586;12.286;2023-08-12T15:44:58;101403.47;;;24.89
34807;BMP280;18310;55.586;12.286;2023-08-12T15:48:04;101401.03;;;24.91
34807;BMP280;18310;55.586;12.286;2023-08-12T15:51:07;101398.88;;;24.83
34807;BMP280;18310;55.586;12.286;2023-08-12T15:54:10;101412.47;;;24.81
34807;BMP280;18310;55.586;12.286;2023-08-12T15:57:14;101400.88;;;24.82
34807;BMP280;18310;55.586;12.286;2023-08-12T16:00:17;101392.97;;;24.81
34807;BMP280;18310;55.586;12.286;2023-08-12T16:03:21;101384.63;;;24.81
34807;BMP280;18310;55.586;12.286;2023-08-12T16:06:24;101390.19;;;24.81
34807;BMP280;18310;55.586;12.286;2023-08-12T16:09:27;101388.19;;;24.81
34807;BMP280;18310;55.586;12.286;2023-08-12T16:12:33;101390.00;;;24.88
34807;BMP280;18310;55.586;12.286;2023-08-12T16:15:37;101378.06;;;24.87
34807;BMP280;18310;55.586;12.286;2023-08-12T16:18:40;101387.34;;;24.97
34807;BMP280;18310;55.586;12.286;2023-08-12T16:21:43;101386.47;;;25.00
34807;BMP280;18310;55.586;12.286;2023-08-12T16:24:46;101376.69;;;25.08
34807;BMP280;18310;55.586;12.286;2023-08-12T16:27:50;101372.94;;;25.14
34807;BMP280;18310;55.586;12.286;2023-08-12T16:30:53;101366.50;;;25.17
34807;BMP280;18310;55.586;12.286;2023-08-12T16:33:56;101348.66;;;25.15
34807;BMP280;18310;55.586;12.286;2023-08-12T16:36:59;101346.38;;;25.10
34807;BMP280;18310;55.586;12.286;2023-08-12T16:40:22;101341.03;;;25.03
34807;BMP280;18310;55.586;12.286;2023-08-12T16:43:27;101332.75;;;24.99
34807;BMP280;18310;55.586;12.286;2023-08-12T16:46:30;101329.75;;;24.94
34807;BMP280;18310;55.586;12.286;2023-08-12T16:49:33;101327.94;;;24.87
34807;BMP280;18310;55.586;12.286;2023-08-12T16:52:36;101324.22;;;24.78
34807;BMP280;18310;55.586;12.286;2023-08-12T16:55:39;101319.28;;;24.69
34807;BMP280;18310;55.586;12.286;2023-08-12T16:58:43;101319.44;;;24.62
34807;BMP280;18310;55.586;12.286;2023-08-12T17:01:46;101318.34;;;24.59
34807;BMP280;18310;55.586;12.286;2023-08-12T17:04:49;101325.22;;;24.55
34807;BMP280;18310;55.586;12.286;2023-08-12T17:07:53;101327.56;;;24.56
34807;BMP280;18310;55.586;12.286;2023-08-12T17:10:55;101318.78;;;24.58
34807;BMP280;18310;55.586;12.286;2023-08-12T17:14:00;101313.66;;;24.56